sensor_id;sensor_type;location;lat;lon;timestamp;P1;durP1;ratioP1;P2;durP2;ratioP2
29380;SDS011;16364;52.490;13.326;2023-03-23T00:00:20;1.73;;;1.63;;
29380;SDS011;16364;52.490;13.326;2023-03-23T00:02:46;3.63;;;1.70;;
29380;SDS011;16364;52.490;13.326;2023-03-23T00:05:11;2.00;;;1.90;;
29380;SDS011;16364;52.490;13.326;2023-03-23T00:07:36;1.80;;;1.70;;
29380;SDS011;16364;52.490;13.326;2023-03-23T00:10:02;1.60;;;1.50;;
29380;SDS011;16364;52.490;13.326;2023-03-23T00:12:28;2.23;;;1.60;;
29380;SDS011;16364;52.490;13.326;2023-03-23T00:15:00;3.13;;;1.83;;
29380;SDS011;16364;52.490;13.326;2023-03-23T00:17:26;2.40;;;1.70;;
29380;SDS011;16364;52.490;13.326;2023-03-23T00:19:51;1.70;;;1.60;;
29380;SDS011;16364;52.490;13.326;2023-03-23T00:22:16;1.70;;;1.60;;
29380;SDS011;16364;52.490;13.326;2023-03-23T00:24:42;1.60;;;1.50;;
29380;SDS011;16364;52.490;13.326;2023-03-23T00:27:07;2.40;;;1.50;;
29380;SDS011;16364;52.490;13.326;2023-03-23T00:29:39;1.97;;;1.60;;
29380;SDS011;16364;52.490;13.326;2023-03-23T00:32:05;2.10;;;1.50;;
29380;SDS011;16364;52.490;13.326;2023-03-23T00:34:31;2.23;;;1.80;;
29380;SDS011;16364;52.490;13.326;2023-03-23T00:36:57;1.60;;;1.50;;
29380;SDS011;16364;52.490;13.326;2023-03-23T00:39:23;3.00;;;1.60;;
29380;SDS011;16364;52.490;13.326;2023-03-23T00:41:52;2.53;;;1.80;;
29380;SDS011;16364;52.490;13.326;2023-03-23T00:44:18;4.53;;;1.80;;
29380;SDS011;16364;52.490;13.326;2023-03-23T00:46:44;3.03;;;1.50;;
29380;SDS011;16364;52.490;13.326;2023-03-23T00:49:14;3.50;;;1.70;;
29380;SDS011;16364;52.490;13.326;2023-03-23T00:51:40;6.30;;;2.53;;
29380;SDS011;16364;52.490;13.326;2023-03-23T00:54:06;2.00;;;1.80;;
29380;SDS011;16364;52.490;13.326;2023-03-23T00:56:31;3.30;;;2.30;;
29380;SDS011;16364;52.490;13.326;2023-03-23T00:58:56;2.10;;;1.50;;
29380;SDS011;16364;52.490;13.326;2023-03-23T01:01:21;2.17;;;1.90;;
29380;SDS011;16364;52.490;13.326;2023-03-23T01:03:47;1.90;;;1.80;;
29380;SDS011;16364;52.490;13.326;2023-03-23T01:06:12;1.77;;;1.63;;
29380;SDS011;16364;52.490;13.326;2023-03-23T01:08:38;2.53;;;1.70;;
29380;SDS011;16364;52.490;13.326;2023-03-23T01:11:10;3.60;;;1.80;;
29380;SDS011;16364;52.490;13.326;2023-03-23T01:13:36;1.70;;;1.50;;
29380;SDS011;16364;52.490;13.326;2023-03-23T01:16:01;1.97;;;1.67;;
29380;SDS011;16364;52.490;13.326;2023-03-23T01:18:27;1.90;;;1.80;;
29380;SDS011;16364;52.490;13.326;2023-03-23T01:20:52;2.60;;;1.90;;
29380;SDS011;16364;52.490;13.326;2023-03-23T01:23:17;1.80;;;1.60;;
29380;SDS011;16364;52.490;13.326;2023-03-23T01:25:42;1.50;;;1.40;;
29380;SDS011;16364;52.490;13.326;2023-03-23T01:28:09;3.00;;;1.87;;
29380;SDS011;16364;52.490;13.326;2023-03-23T01:30:35;2.23;;;1.87;;
29380;SDS011;16364;52.490;13.326;2023-03-23T01:33:00;1.50;;;1.40;;
29380;SDS011;16364;52.490;13.326;2023-03-23T01:35:26;2.07;;;1.87;;
29380;SDS011;16364;52.490;13.326;2023-03-23T01:37:51;4.00;;;1.93;;
29380;SDS011;16364;52.490;13.326;2023-03-23T01:40:16;2.20;;;1.60;;
29380;SDS011;16364;52.490;13.326;2023-03-23T01:42:42;2.27;;;1.63;;
29380;SDS011;16364;52.490;13.326;2023-03-23T01:48:07;1.83;;;1.57;;
29380;SDS011;16364;52.490;13.326;2023-03-23T01:50:31;1.80;;;1.70;;
29380;SDS011;16364;52.490;13.326;2023-03-23T01:52:59;1.50;;;1.40;;
29380;SDS011;16364;52.490;13.326;2023-03-23T01:55:26;2.47;;;1.80;;
29380;SDS011;16364;52.490;13.326;2023-03-23T01:57:52;2.10;;;1.90;;
29380;SDS011;16364;52.490;13.326;2023-03-23T02:00:18;3.50;;;1.50;;
29380;SDS011;16364;52.490;13.326;2023-03-23T02:02:45;1.87;;;1.67;;
29380;SDS011;16364;52.490;13.326;2023-03-23T02:05:13;2.30;;;1.90;;
29380;SDS011;16364;52.490;13.326;2023-03-23T02:07:39;1.90;;;1.80;;
29380;SDS011;16364;52.490;13.326;2023-03-23T02:10:05;2.93;;;1.60;;
29380;SDS011;16364;52.490;13.326;2023-03-23T02:12:30;1.70;;;1.60;;
29380;SDS011;16364;52.490;13.326;2023-03-23T02:14:55;2.10;;;1.80;;
29380;SDS011;16364;52.490;13.326;2023-03-23T02:24:56;2.20;;;1.80;;
29380;SDS011;16364;52.490;13.326;2023-03-23T02:27:29;2.03;;;1.63;;
29380;SDS011;16364;52.490;13.326;2023-03-23T02:32:44;1.77;;;1.67;;
29380;SDS011;16364;52.490;13.326;2023-03-23T02:35:35;2.70;;;1.90;;
29380;SDS011;16364;52.490;13.326;2023-03-23T02:38:04;2.13;;;1.80;;
29380;SDS011;16364;52.490;13.326;2023-03-23T02:40:41;1.70;;;1.60;;
29380;SDS011;16364;52.490;13.326;2023-03-23T02:43:09;3.23;;;1.70;;
29380;SDS011;16364;52.490;13.326;2023-03-23T02:45:35;3.20;;;1.80;;
29380;SDS011;16364;52.490;13.326;2023-03-23T02:48:01;1.80;;;1.70;;
29380;SDS011;16364;52.490;13.326;2023-03-23T02:50:27;1.90;;;1.67;;
29380;SDS011;16364;52.490;13.326;2023-03-23T02:52:53;3.60;;;2.20;;
29380;SDS011;16364;52.490;13.326;2023-03-23T02:55:20;2.10;;;1.80;;
29380;SDS011;16364;52.490;13.326;2023-03-23T02:57:49;2.30;;;1.60;;
29380;SDS011;16364;52.490;13.326;2023-03-23T03:00:15;1.93;;;1.73;;
29380;SDS011;16364;52.490;13.326;2023-03-23T03:02:43;2.13;;;1.90;;
29380;SDS011;16364;52.490;13.326;2023-03-23T03:15:36;2.70;;;1.80;;
29380;SDS011;16364;52.490;13.326;2023-03-23T03:20:35;2.43;;;2.23;;
29380;SDS011;16364;52.490;13.326;2023-03-23T03:23:02;3.70;;;1.83;;
29380;SDS011;16364;52.490;13.326;2023-03-23T03:25:28;2.47;;;2.20;;
29380;SDS011;16364;52.490;13.326;2023-03-23T03:27:54;1.70;;;1.60;;
29380;SDS011;16364;52.490;13.326;2023-03-23T03:30:21;3.97;;;1.80;;
29380;SDS011;16364;52.490;13.326;2023-03-23T03:32:49;2.60;;;1.80;;
29380;SDS011;16364;52.490;13.326;2023-03-23T03:35:18;3.17;;;2.00;;
29380;SDS011;16364;52.490;13.326;2023-03-23T03:37:44;1.90;;;1.70;;
29380;SDS011;16364;52.490;13.326;2023-03-23T03:40:12;1.70;;;1.60;;
29380;SDS011;16364;52.490;13.326;2023-03-23T03:42:38;1.73;;;1.60;;
29380;SDS011;16364;52.490;13.326;2023-03-23T03:45:04;2.47;;;2.00;;
29380;SDS011;16364;52.490;13.326;2023-03-23T03:47:30;2.00;;;1.80;;
29380;SDS011;16364;52.490;13.326;2023-03-23T03:49:55;2.50;;;1.90;;
29380;SDS011;16364;52.490;13.326;2023-03-23T03:52:21;1.83;;;1.73;;
29380;SDS011;16364;52.490;13.326;2023-03-23T03:54:46;6.80;;;1.57;;
29380;SDS011;16364;52.490;13.326;2023-03-23T03:57:12;1.83;;;1.73;;
29380;SDS011;16364;52.490;13.326;2023-03-23T03:59:37;1.83;;;1.70;;
29380;SDS011;16364;52.490;13.326;2023-03-23T04:02:02;1.77;;;1.67;;
29380;SDS011;16364;52.490;13.326;2023-03-23T04:04:28;1.50;;;1.40;;
29380;SDS011;16364;52.490;13.326;2023-03-23T04:06:54;2.67;;;1.80;;
29380;SDS011;16364;52.490;13.326;2023-03-23T04:09:19;1.77;;;1.67;;
29380;SDS011;16364;52.490;13.326;2023-03-23T04:11:44;2.07;;;1.70;;
29380;SDS011;16364;52.490;13.326;2023-03-23T04:14:10;1.73;;;1.63;;
29380;SDS011;16364;52.490;13.326;2023-03-23T04:16:35;1.70;;;1.60;;
29380;SDS011;16364;52.490;13.326;2023-03-23T04:19:01;1.90;;;1.53;;
29380;SDS011;16364;52.490;13.326;2023-03-23T04:21:26;2.10;;;2.00;;
29380;SDS011;16364;52.490;13.326;2023-03-23T04:23:55;2.57;;;1.70;;
29380;SDS011;16364;52.490;13.326;2023-03-23T04:26:25;3.37;;;1.77;;
29380;SDS011;16364;52.490;13.326;2023-03-23T04:28:50;2.53;;;1.40;;
29380;SDS011;16364;52.490;13.326;2023-03-23T04:31:15;2.03;;;1.50;;
29380;SDS011;16364;52.490;13.326;2023-03-23T04:33:40;2.33;;;2.13;;
29380;SDS011;16364;52.490;13.326;2023-03-23T04:36:06;2.20;;;1.63;;
29380;SDS011;16364;52.490;13.326;2023-03-23T04:38:31;2.00;;;1.70;;
29380;SDS011;16364;52.490;13.326;2023-03-23T04:40:58;2.70;;;1.50;;
29380;SDS011;16364;52.490;13.326;2023-03-23T04:43:25;2.17;;;1.97;;
29380;SDS011;16364;52.490;13.326;2023-03-23T04:45:52;2.33;;;1.60;;
29380;SDS011;16364;52.490;13.326;2023-03-23T04:48:21;1.63;;;1.53;;
29380;SDS011;16364;52.490;13.326;2023-03-23T04:50:47;2.23;;;2.07;;
29380;SDS011;16364;52.490;13.326;2023-03-23T04:53:13;3.30;;;1.83;;
29380;SDS011;16364;52.490;13.326;2023-03-23T04:55:38;3.00;;;2.47;;
29380;SDS011;16364;52.490;13.326;2023-03-23T04:58:04;3.43;;;1.83;;
29380;SDS011;16364;52.490;13.326;2023-03-23T05:00:31;1.87;;;1.77;;
29380;SDS011;16364;52.490;13.326;2023-03-23T05:02:57;2.30;;;2.10;;
29380;SDS011;16364;52.490;13.326;2023-03-23T05:05:22;3.30;;;2.00;;
29380;SDS011;16364;52.490;13.326;2023-03-23T05:07:48;1.60;;;1.50;;
29380;SDS011;16364;52.490;13.326;2023-03-23T05:10:14;1.80;;;1.70;;
29380;SDS011;16364;52.490;13.326;2023-03-23T05:12:40;2.87;;;2.50;;
29380;SDS011;16364;52.490;13.326;2023-03-23T05:15:05;2.70;;;2.47;;
29380;SDS011;16364;52.490;13.326;2023-03-23T05:17:31;2.87;;;2.00;;
29380;SDS011;16364;52.490;13.326;2023-03-23T05:19:57;3.70;;;1.80;;
29380;SDS011;16364;52.490;13.326;2023-03-23T05:22:23;3.07;;;2.03;;
29380;SDS011;16364;52.490;13.326;2023-03-23T05:24:48;5.63;;;2.10;;
29380;SDS011;16364;52.490;13.326;2023-03-23T05:27:16;3.40;;;1.80;;
29380;SDS011;16364;52.490;13.326;2023-03-23T05:29:42;2.87;;;2.10;;
29380;SDS011;16364;52.490;13.326;2023-03-23T05:32:07;2.20;;;2.00;;
29380;SDS011;16364;52.490;13.326;2023-03-23T05:34:33;2.83;;;2.30;;
29380;SDS011;16364;52.490;13.326;2023-03-23T05:36:59;4.57;;;2.70;;
29380;SDS011;16364;52.490;13.326;2023-03-23T05:39:25;4.20;;;2.73;;
29380;SDS011;16364;52.490;13.326;2023-03-23T05:41:51;2.93;;;2.20;;
29380;SDS011;16364;52.490;13.326;2023-03-23T05:44:17;2.03;;;1.93;;
29380;SDS011;16364;52.490;13.326;2023-03-23T05:46:42;4.40;;;2.47;;
29380;SDS011;16364;52.490;13.326;2023-03-23T05:49:08;2.43;;;2.23;;
29380;SDS011;16364;52.490;13.326;2023-03-23T05:51:33;3.60;;;2.10;;
29380;SDS011;16364;52.490;13.326;2023-03-23T05:53:59;2.37;;;2.17;;
29380;SDS011;16364;52.490;13.326;2023-03-23T05:56:25;2.63;;;2.30;;
29380;SDS011;16364;52.490;13.326;2023-03-23T05:58:50;3.33;;;2.50;;
29380;SDS011;16364;52.490;13.326;2023-03-23T06:01:16;3.40;;;2.07;;
29380;SDS011;16364;52.490;13.326;2023-03-23T06:03:41;4.63;;;2.37;;
29380;SDS011;16364;52.490;13.326;2023-03-23T06:06:09;2.30;;;2.10;;
29380;SDS011;16364;52.490;13.326;2023-03-23T06:08:34;4.17;;;2.27;;
29380;SDS011;16364;52.490;13.326;2023-03-23T06:11:02;6.30;;;2.20;;
29380;SDS011;16364;52.490;13.326;2023-03-23T06:13:27;6.93;;;2.00;;
29380;SDS011;16364;52.490;13.326;2023-03-23T06:15:54;4.93;;;1.90;;
29380;SDS011;16364;52.490;13.326;2023-03-23T06:18:22;2.73;;;1.80;;
29380;SDS011;16364;52.490;13.326;2023-03-23T06:20:48;2.70;;;2.07;;
29380;SDS011;16364;52.490;13.326;2023-03-23T06:23:13;3.30;;;1.70;;
29380;SDS011;16364;52.490;13.326;2023-03-23T06:25:39;2.00;;;1.90;;
29380;SDS011;16364;52.490;13.326;2023-03-23T06:28:04;2.60;;;1.80;;
29380;SDS011;16364;52.490;13.326;2023-03-23T06:30:29;2.70;;;1.87;;
29380;SDS011;16364;52.490;13.326;2023-03-23T06:32:55;3.97;;;2.00;;
29380;SDS011;16364;52.490;13.326;2023-03-23T06:35:20;2.13;;;1.90;;
29380;SDS011;16364;52.490;13.326;2023-03-23T06:37:46;2.33;;;2.13;;
29380;SDS011;16364;52.490;13.326;2023-03-23T06:40:11;3.17;;;1.80;;
29380;SDS011;16364;52.490;13.326;2023-03-23T06:42:37;1.93;;;1.70;;
29380;SDS011;16364;52.490;13.326;2023-03-23T06:45:03;3.33;;;2.00;;
29380;SDS011;16364;52.490;13.326;2023-03-23T06:47:28;5.17;;;2.67;;
29380;SDS011;16364;52.490;13.326;2023-03-23T06:49:55;3.50;;;1.93;;
29380;SDS011;16364;52.490;13.326;2023-03-23T06:52:21;3.60;;;1.73;;
29380;SDS011;16364;52.490;13.326;2023-03-23T06:54:48;2.23;;;2.03;;
29380;SDS011;16364;52.490;13.326;2023-03-23T06:57:13;2.97;;;2.20;;
29380;SDS011;16364;52.490;13.326;2023-03-23T06:59:38;2.30;;;2.10;;
29380;SDS011;16364;52.490;13.326;2023-03-23T07:02:03;3.97;;;1.80;;
29380;SDS011;16364;52.490;13.326;2023-03-23T07:04:29;2.17;;;1.77;;
29380;SDS011;16364;52.490;13.326;2023-03-23T07:06:55;3.17;;;2.23;;
29380;SDS011;16364;52.490;13.326;2023-03-23T07:09:21;3.50;;;2.53;;
29380;SDS011;16364;52.490;13.326;2023-03-23T07:11:46;3.57;;;2.00;;
29380;SDS011;16364;52.490;13.326;2023-03-23T07:14:12;2.90;;;2.17;;
29380;SDS011;16364;52.490;13.326;2023-03-23T07:16:38;3.80;;;2.47;;
29380;SDS011;16364;52.490;13.326;2023-03-23T07:19:03;2.97;;;2.17;;
29380;SDS011;16364;52.490;13.326;2023-03-23T07:21:28;3.07;;;2.77;;
29380;SDS011;16364;52.490;13.326;2023-03-23T07:23:53;3.73;;;2.33;;
29380;SDS011;16364;52.490;13.326;2023-03-23T07:26:19;2.60;;;2.40;;
29380;SDS011;16364;52.490;13.326;2023-03-23T07:28:44;3.67;;;2.23;;
29380;SDS011;16364;52.490;13.326;2023-03-23T07:31:10;5.20;;;2.43;;
29380;SDS011;16364;52.490;13.326;2023-03-23T07:33:36;3.00;;;2.13;;
29380;SDS011;16364;52.490;13.326;2023-03-23T07:36:02;3.07;;;2.37;;
29380;SDS011;16364;52.490;13.326;2023-03-23T07:38:28;4.67;;;2.30;;
29380;SDS011;16364;52.490;13.326;2023-03-23T07:40:53;3.70;;;2.60;;
29380;SDS011;16364;52.490;13.326;2023-03-23T07:43:19;4.30;;;2.17;;
29380;SDS011;16364;52.490;13.326;2023-03-23T07:45:45;4.30;;;2.50;;
29380;SDS011;16364;52.490;13.326;2023-03-23T07:48:10;2.63;;;2.43;;
29380;SDS011;16364;52.490;13.326;2023-03-23T07:50:36;2.40;;;2.20;;
29380;SDS011;16364;52.490;13.326;2023-03-23T07:53:02;8.30;;;2.13;;
29380;SDS011;16364;52.490;13.326;2023-03-23T07:55:28;3.20;;;2.33;;
29380;SDS011;16364;52.490;13.326;2023-03-23T07:57:53;3.33;;;3.03;;
29380;SDS011;16364;52.490;13.326;2023-03-23T08:00:19;3.17;;;2.70;;
29380;SDS011;16364;52.490;13.326;2023-03-23T08:02:49;4.43;;;2.07;;
29380;SDS011;16364;52.490;13.326;2023-03-23T08:05:15;6.07;;;2.47;;
29380;SDS011;16364;52.490;13.326;2023-03-23T08:07:41;3.23;;;2.23;;
29380;SDS011;16364;52.490;13.326;2023-03-23T08:10:07;4.73;;;2.60;;
29380;SDS011;16364;52.490;13.326;2023-03-23T08:12:35;2.70;;;2.50;;
29380;SDS011;16364;52.490;13.326;2023-03-23T08:15:01;3.17;;;2.10;;
29380;SDS011;16364;52.490;13.326;2023-03-23T08:17:27;2.23;;;1.70;;
29380;SDS011;16364;52.490;13.326;2023-03-23T08:19:52;2.17;;;2.00;;
29380;SDS011;16364;52.490;13.326;2023-03-23T08:22:17;2.00;;;1.80;;
29380;SDS011;16364;52.490;13.326;2023-03-23T08:24:42;5.83;;;2.47;;
29380;SDS011;16364;52.490;13.326;2023-03-23T08:27:08;2.10;;;1.90;;
29380;SDS011;16364;52.490;13.326;2023-03-23T08:29:34;2.90;;;2.07;;
29380;SDS011;16364;52.490;13.326;2023-03-23T08:31:59;2.67;;;2.30;;
29380;SDS011;16364;52.490;13.326;2023-03-23T08:34:24;2.27;;;1.90;;
29380;SDS011;16364;52.490;13.326;2023-03-23T08:36:50;2.43;;;1.90;;
29380;SDS011;16364;52.490;13.326;2023-03-23T08:39:16;3.30;;;2.60;;
29380;SDS011;16364;52.490;13.326;2023-03-23T08:41:43;2.63;;;1.90;;
29380;SDS011;16364;52.490;13.326;2023-03-23T08:44:08;2.27;;;2.07;;
29380;SDS011;16364;52.490;13.326;2023-03-23T08:46:34;4.20;;;1.93;;
29380;SDS011;16364;52.490;13.326;2023-03-23T08:48:59;4.33;;;2.77;;
29380;SDS011;16364;52.490;13.326;2023-03-23T08:51:24;2.33;;;1.87;;
29380;SDS011;16364;52.490;13.326;2023-03-23T08:53:50;3.43;;;1.93;;
29380;SDS011;16364;52.490;13.326;2023-03-23T08:56:15;4.80;;;1.90;;
29380;SDS011;16364;52.490;13.326;2023-03-23T08:58:41;2.50;;;1.90;;
29380;SDS011;16364;52.490;13.326;2023-03-23T09:01:07;5.60;;;2.03;;
29380;SDS011;16364;52.490;13.326;2023-03-23T09:03:33;2.63;;;2.30;;
29380;SDS011;16364;52.490;13.326;2023-03-23T09:06:00;1.70;;;1.60;;
29380;SDS011;16364;52.490;13.326;2023-03-23T09:08:26;2.93;;;1.87;;
29380;SDS011;16364;52.490;13.326;2023-03-23T09:10:54;1.70;;;1.60;;
29380;SDS011;16364;52.490;13.326;2023-03-23T09:13:19;3.67;;;1.80;;
29380;SDS011;16364;52.490;13.326;2023-03-23T09:15:45;3.10;;;2.10;;
29380;SDS011;16364;52.490;13.326;2023-03-23T09:18:11;3.30;;;1.83;;
29380;SDS011;16364;52.490;13.326;2023-03-23T09:20:36;3.17;;;1.63;;
29380;SDS011;16364;52.490;13.326;2023-03-23T09:23:03;2.33;;;2.13;;
29380;SDS011;16364;52.490;13.326;2023-03-23T09:25:29;1.53;;;1.40;;
29380;SDS011;16364;52.490;13.326;2023-03-23T09:27:56;2.43;;;1.80;;
29380;SDS011;16364;52.490;13.326;2023-03-23T09:30:23;2.20;;;2.00;;
29380;SDS011;16364;52.490;13.326;2023-03-23T09:32:49;2.50;;;1.70;;
29380;SDS011;16364;52.490;13.326;2023-03-23T09:35:14;3.50;;;1.50;;
29380;SDS011;16364;52.490;13.326;2023-03-23T09:37:41;4.30;;;1.90;;
29380;SDS011;16364;52.490;13.326;2023-03-23T09:40:09;1.60;;;1.50;;
29380;SDS011;16364;52.490;13.326;2023-03-23T09:50:23;1.50;;;1.40;;
29380;SDS011;16364;52.490;13.326;2023-03-23T09:55:20;1.90;;;1.80;;
29380;SDS011;16364;52.490;13.326;2023-03-23T09:57:59;1.60;;;1.50;;
29380;SDS011;16364;52.490;13.326;2023-03-23T10:07:55;2.00;;;1.80;;
29380;SDS011;16364;52.490;13.326;2023-03-23T10:10:21;2.10;;;1.97;;
29380;SDS011;16364;52.490;13.326;2023-03-23T10:12:55;2.10;;;1.70;;
29380;SDS011;16364;52.490;13.326;2023-03-23T10:15:31;2.70;;;1.33;;
29380;SDS011;16364;52.490;13.326;2023-03-23T10:18:06;1.27;;;1.17;;
29380;SDS011;16364;52.490;13.326;2023-03-23T10:20:53;1.73;;;1.30;;
29380;SDS011;16364;52.490;13.326;2023-03-23T10:26:33;1.40;;;1.30;;
29380;SDS011;16364;52.490;13.326;2023-03-23T10:28:38;1.10;;;1.00;;
29380;SDS011;16364;52.490;13.326;2023-03-23T10:31:04;2.60;;;1.20;;
29380;SDS011;16364;52.490;13.326;2023-03-23T10:33:36;2.93;;;1.33;;
29380;SDS011;16364;52.490;13.326;2023-03-23T10:38:49;1.37;;;1.27;;
29380;SDS011;16364;52.490;13.326;2023-03-23T10:41:15;3.23;;;1.10;;
29380;SDS011;16364;52.490;13.326;2023-03-23T10:43:42;1.23;;;1.07;;
29380;SDS011;16364;52.490;13.326;2023-03-23T10:48:53;1.27;;;1.10;;
29380;SDS011;16364;52.490;13.326;2023-03-23T10:51:20;1.20;;;1.10;;
29380;SDS011;16364;52.490;13.326;2023-03-23T10:53:50;1.30;;;1.20;;
29380;SDS011;16364;52.490;13.326;2023-03-23T10:56:20;1.20;;;1.10;;
29380;SDS011;16364;52.490;13.326;2023-03-23T10:58:47;1.50;;;1.30;;
29380;SDS011;16364;52.490;13.326;2023-03-23T11:01:12;1.47;;;1.37;;
29380;SDS011;16364;52.490;13.326;2023-03-23T11:03:42;1.87;;;1.27;;
29380;SDS011;16364;52.490;13.326;2023-03-23T11:06:09;2.70;;;1.23;;
29380;SDS011;16364;52.490;13.326;2023-03-23T11:08:37;1.90;;;1.40;;
29380;SDS011;16364;52.490;13.326;2023-03-23T11:13:37;1.27;;;1.17;;
29380;SDS011;16364;52.490;13.326;2023-03-23T11:16:04;3.30;;;1.30;;
29380;SDS011;16364;52.490;13.326;2023-03-23T11:18:37;2.33;;;1.77;;
29380;SDS011;16364;52.490;13.326;2023-03-23T11:21:03;2.70;;;1.30;;
29380;SDS011;16364;52.490;13.326;2023-03-23T11:28:20;1.30;;;1.20;;
29380;SDS011;16364;52.490;13.326;2023-03-23T11:30:46;2.00;;;1.27;;
29380;SDS011;16364;52.490;13.326;2023-03-23T11:33:11;2.00;;;1.30;;
29380;SDS011;16364;52.490;13.326;2023-03-23T11:35:37;4.40;;;1.27;;
29380;SDS011;16364;52.490;13.326;2023-03-23T11:38:03;5.73;;;1.30;;
29380;SDS011;16364;52.490;13.326;2023-03-23T11:40:31;2.37;;;1.20;;
29380;SDS011;16364;52.490;13.326;2023-03-23T11:50:33;2.20;;;1.30;;
29380;SDS011;16364;52.490;13.326;2023-03-23T11:53:07;3.53;;;1.10;;
29380;SDS011;16364;52.490;13.326;2023-03-23T11:58:00;1.30;;;1.20;;
29380;SDS011;16364;52.490;13.326;2023-03-23T12:00:25;2.40;;;1.30;;
29380;SDS011;16364;52.490;13.326;2023-03-23T12:02:56;2.07;;;1.43;;
29380;SDS011;16364;52.490;13.326;2023-03-23T12:12:03;1.67;;;1.30;;
29380;SDS011;16364;52.490;13.326;2023-03-23T12:26:46;4.57;;;1.30;;
29380;SDS011;16364;52.490;13.326;2023-03-23T12:29:17;1.50;;;1.20;;
29380;SDS011;16364;52.490;13.326;2023-03-23T12:34:22;1.30;;;1.20;;
29380;SDS011;16364;52.490;13.326;2023-03-23T12:42:03;1.60;;;1.50;;
29380;SDS011;16364;52.490;13.326;2023-03-23T12:44:35;1.50;;;1.20;;
29380;SDS011;16364;52.490;13.326;2023-03-23T12:47:10;1.47;;;1.20;;
29380;SDS011;16364;52.490;13.326;2023-03-23T12:49:43;4.33;;;1.60;;
29380;SDS011;16364;52.490;13.326;2023-03-23T12:57:39;4.40;;;1.40;;
29380;SDS011;16364;52.490;13.326;2023-03-23T13:00:28;1.83;;;1.33;;
29380;SDS011;16364;52.490;13.326;2023-03-23T13:03:06;1.30;;;1.20;;
29380;SDS011;16364;52.490;13.326;2023-03-23T13:05:46;1.30;;;1.20;;
29380;SDS011;16364;52.490;13.326;2023-03-23T13:08:21;1.43;;;1.30;;
29380;SDS011;16364;52.490;13.326;2023-03-23T13:10:49;1.13;;;1.03;;
29380;SDS011;16364;52.490;13.326;2023-03-23T13:13:18;1.97;;;1.20;;
29380;SDS011;16364;52.490;13.326;2023-03-23T13:20:54;2.07;;;1.40;;
29380;SDS011;16364;52.490;13.326;2023-03-23T13:26:20;1.20;;;1.10;;
29380;SDS011;16364;52.490;13.326;2023-03-23T13:34:38;4.00;;;1.17;;
29380;SDS011;16364;52.490;13.326;2023-03-23T13:36:51;1.83;;;1.20;;
29380;SDS011;16364;52.490;13.326;2023-03-23T13:39:21;2.40;;;1.10;;
29380;SDS011;16364;52.490;13.326;2023-03-23T13:41:58;1.30;;;1.20;;
29380;SDS011;16364;52.490;13.326;2023-03-23T13:44:24;2.27;;;1.20;;
29380;SDS011;16364;52.490;13.326;2023-03-23T13:46:57;2.30;;;1.20;;
29380;SDS011;16364;52.490;13.326;2023-03-23T13:49:23;2.27;;;1.23;;
29380;SDS011;16364;52.490;13.326;2023-03-23T14:01:57;1.90;;;1.50;;
29380;SDS011;16364;52.490;13.326;2023-03-23T14:04:38;2.53;;;1.20;;
29380;SDS011;16364;52.490;13.326;2023-03-23T14:07:09;3.10;;;1.23;;
29380;SDS011;16364;52.490;13.326;2023-03-23T14:09:39;3.80;;;1.33;;
29380;SDS011;16364;52.490;13.326;2023-03-23T14:12:05;2.03;;;1.07;;
29380;SDS011;16364;52.490;13.326;2023-03-23T14:14:44;1.30;;;1.20;;
29380;SDS011;16364;52.490;13.326;2023-03-23T14:17:14;2.23;;;1.20;;
29380;SDS011;16364;52.490;13.326;2023-03-23T14:19:40;1.17;;;1.07;;
29380;SDS011;16364;52.490;13.326;2023-03-23T14:22:16;2.90;;;1.10;;
29380;SDS011;16364;52.490;13.326;2023-03-23T14:24:42;2.40;;;1.40;;
29380;SDS011;16364;52.490;13.326;2023-03-23T14:29:32;1.93;;;1.47;;
29380;SDS011;16364;52.490;13.326;2023-03-23T14:31:58;1.43;;;1.13;;
29380;SDS011;16364;52.490;13.326;2023-03-23T14:34:24;3.00;;;1.33;;
29380;SDS011;16364;52.490;13.326;2023-03-23T14:36:51;2.40;;;1.27;;
29380;SDS011;16364;52.490;13.326;2023-03-23T14:39:22;1.33;;;1.10;;
29380;SDS011;16364;52.490;13.326;2023-03-23T14:41:48;3.33;;;1.30;;
29380;SDS011;16364;52.490;13.326;2023-03-23T14:44:16;2.00;;;1.10;;
29380;SDS011;16364;52.490;13.326;2023-03-23T14:46:42;1.60;;;1.30;;
29380;SDS011;16364;52.490;13.326;2023-03-23T14:49:11;2.40;;;1.30;;
29380;SDS011;16364;52.490;13.326;2023-03-23T14:51:37;4.57;;;1.00;;
29380;SDS011;16364;52.490;13.326;2023-03-23T14:54:07;2.30;;;1.27;;
29380;SDS011;16364;52.490;13.326;2023-03-23T14:56:34;2.10;;;1.27;;
29380;SDS011;16364;52.490;13.326;2023-03-23T14:59:02;2.10;;;1.20;;
29380;SDS011;16364;52.490;13.326;2023-03-23T15:01:28;2.57;;;1.23;;
29380;SDS011;16364;52.490;13.326;2023-03-23T15:04:02;2.37;;;1.10;;
29380;SDS011;16364;52.490;13.326;2023-03-23T15:06:29;3.37;;;1.67;;
29380;SDS011;16364;52.490;13.326;2023-03-23T15:08:56;2.13;;;1.13;;
29380;SDS011;16364;52.490;13.326;2023-03-23T15:11:24;5.20;;;1.80;;
29380;SDS011;16364;52.490;13.326;2023-03-23T15:13:53;1.50;;;1.20;;
29380;SDS011;16364;52.490;13.326;2023-03-23T15:16:21;2.10;;;1.30;;
29380;SDS011;16364;52.490;13.326;2023-03-23T15:18:49;1.57;;;1.30;;
29380;SDS011;16364;52.490;13.326;2023-03-23T15:21:21;2.97;;;1.60;;
29380;SDS011;16364;52.490;13.326;2023-03-23T15:23:47;3.13;;;1.13;;
29380;SDS011;16364;52.490;13.326;2023-03-23T15:26:18;1.40;;;1.23;;
29380;SDS011;16364;52.490;13.326;2023-03-23T15:28:45;1.73;;;1.00;;
29380;SDS011;16364;52.490;13.326;2023-03-23T15:31:11;2.60;;;1.40;;
29380;SDS011;16364;52.490;13.326;2023-03-23T15:33:37;1.10;;;0.93;;
29380;SDS011;16364;52.490;13.326;2023-03-23T15:36:07;1.20;;;1.10;;
29380;SDS011;16364;52.490;13.326;2023-03-23T15:38:33;1.17;;;1.00;;
29380;SDS011;16364;52.490;13.326;2023-03-23T15:40:59;1.70;;;1.20;;
29380;SDS011;16364;52.490;13.326;2023-03-23T15:43:26;1.63;;;1.00;;
29380;SDS011;16364;52.490;13.326;2023-03-23T15:48:21;1.37;;;1.00;;
29380;SDS011;16364;52.490;13.326;2023-03-23T15:50:46;1.50;;;1.10;;
29380;SDS011;16364;52.490;13.326;2023-03-23T15:55:41;1.73;;;1.10;;
29380;SDS011;16364;52.490;13.326;2023-03-23T15:58:11;2.17;;;1.20;;
29380;SDS011;16364;52.490;13.326;2023-03-23T16:00:36;2.63;;;1.07;;
29380;SDS011;16364;52.490;13.326;2023-03-23T16:03:03;2.97;;;0.93;;
29380;SDS011;16364;52.490;13.326;2023-03-23T16:05:29;1.63;;;1.10;;
29380;SDS011;16364;52.490;13.326;2023-03-23T16:07:55;1.17;;;1.07;;
29380;SDS011;16364;52.490;13.326;2023-03-23T16:10:21;2.03;;;1.20;;
29380;SDS011;16364;52.490;13.326;2023-03-23T16:12:46;1.13;;;0.90;;
29380;SDS011;16364;52.490;13.326;2023-03-23T16:15:12;2.90;;;1.00;;
29380;SDS011;16364;52.490;13.326;2023-03-23T16:17:37;1.60;;;1.03;;
29380;SDS011;16364;52.490;13.326;2023-03-23T16:20:09;3.00;;;1.00;;
29380;SDS011;16364;52.490;13.326;2023-03-23T16:22:35;2.27;;;1.17;;
29380;SDS011;16364;52.490;13.326;2023-03-23T16:25:00;1.30;;;1.20;;
29380;SDS011;16364;52.490;13.326;2023-03-23T16:27:26;1.60;;;1.10;;
29380;SDS011;16364;52.490;13.326;2023-03-23T16:29:51;3.70;;;1.30;;
29380;SDS011;16364;52.490;13.326;2023-03-23T16:32:16;1.67;;;1.10;;
29380;SDS011;16364;52.490;13.326;2023-03-23T16:34:41;2.43;;;1.03;;
29380;SDS011;16364;52.490;13.326;2023-03-23T16:37:07;2.73;;;1.10;;
29380;SDS011;16364;52.490;13.326;2023-03-23T16:39:33;1.27;;;1.17;;
29380;SDS011;16364;52.490;13.326;2023-03-23T16:41:58;1.80;;;1.40;;
29380;SDS011;16364;52.490;13.326;2023-03-23T16:44:23;3.10;;;2.20;;